GRO weather

Girona Airport
Girona, Girona, Spain

Public forecast

Using degrees Celsius for public forecast. Weather courtesy of forecast.io.

METAR (pilot weather report)

Retrieved 2019/02/16 21:33 UTC (0 seconds ago):

LEGE 162133Z 24004KT 200V260 0900 R20/0650N R02/P2000 FG VV002 06/06 Q1029

TAF (pilot weather forecast)

Retrieved 2019/02/16 18:27 UTC (3 hours ago):

TAF LEGE 161700Z 1618/1718 18007KT 9999 FEW020 TX18/1713Z TN04/1707Z BECMG 1618/1620 VRB03KT TEMPO 1622/1708 0400 FG VV002 BECMG 1709/1711 18012KT